createdAt,value
2018-02-13T00:00:07.843Z,13.00
2018-02-13T00:02:35.265Z,11.12
2018-02-13T00:05:02.699Z,10.90
2018-02-13T00:07:30.117Z,11.38
2018-02-13T00:09:57.538Z,11.18
2018-02-13T00:12:24.973Z,11.65
2018-02-13T00:14:52.396Z,12.10
2018-02-13T00:17:19.820Z,12.00
2018-02-13T00:19:47.247Z,10.55
2018-02-13T00:22:14.657Z,12.13
2018-02-13T00:24:42.101Z,11.40
2018-02-13T00:27:09.521Z,12.77
2018-02-13T00:29:36.940Z,11.65
2018-02-13T00:32:04.373Z,11.02
2018-02-13T00:34:31.753Z,10.60
2018-02-13T00:36:59.217Z,12.85
2018-02-13T00:39:26.643Z,10.57
2018-02-13T00:41:54.061Z,12.50
2018-02-13T00:44:21.480Z,12.07
2018-02-13T00:46:48.913Z,12.40
2018-02-13T00:49:16.333Z,12.70
2018-02-13T00:51:43.756Z,11.95
2018-02-13T00:54:11.181Z,13.07
2018-02-13T00:56:38.602Z,12.07
2018-02-13T00:59:06.013Z,11.30
2018-02-13T01:01:33.442Z,10.88
2018-02-13T01:04:00.858Z,11.52
2018-02-13T01:06:28.280Z,11.00
2018-02-13T01:08:55.702Z,11.73
2018-02-13T01:11:23.114Z,11.15
2018-02-13T01:13:50.540Z,11.20
2018-02-13T01:16:17.954Z,11.55
2018-02-13T01:18:45.365Z,10.45
2018-02-13T01:21:12.789Z,9.38
2018-02-13T01:23:40.273Z,9.00
2018-02-13T01:26:07.686Z,9.65
2018-02-13T01:28:35.093Z,9.95
2018-02-13T01:31:02.505Z,10.80
2018-02-13T01:33:29.920Z,9.75
2018-02-13T01:35:57.333Z,10.75
2018-02-13T01:38:24.785Z,9.93
2018-02-13T01:40:52.201Z,9.90
2018-02-13T01:43:19.626Z,12.25
2018-02-13T01:45:47.061Z,10.30
2018-02-13T01:48:14.478Z,10.43
2018-02-13T01:50:41.903Z,10.82
2018-02-13T01:53:09.322Z,9.82
2018-02-13T01:55:36.737Z,10.30
2018-02-13T01:58:04.152Z,10.75
2018-02-13T02:00:31.581Z,10.60
2018-02-13T02:02:59.005Z,10.40
2018-02-13T02:05:26.376Z,11.05
2018-02-13T02:07:53.846Z,10.80
2018-02-13T02:10:21.253Z,11.30
2018-02-13T02:12:48.670Z,10.55
2018-02-13T02:15:16.110Z,10.85
2018-02-13T02:17:43.521Z,10.52
2018-02-13T02:20:10.952Z,10.88
2018-02-13T02:22:38.406Z,11.55
2018-02-13T02:25:05.820Z,10.85
2018-02-13T02:27:33.245Z,10.48
2018-02-13T02:30:00.669Z,9.98
2018-02-13T02:32:28.086Z,10.80
2018-02-13T02:34:55.502Z,9.90
2018-02-13T02:37:22.929Z,11.63
2018-02-13T02:39:50.357Z,10.20
2018-02-13T02:42:17.775Z,11.50
2018-02-13T02:44:45.202Z,10.23
2018-02-13T02:47:12.617Z,9.85
2018-02-13T02:49:40.029Z,10.30
2018-02-13T02:52:07.457Z,10.25
2018-02-13T02:54:34.894Z,10.95
2018-02-13T02:57:02.311Z,10.60
2018-02-13T02:59:29.729Z,10.10
2018-02-13T03:01:57.158Z,10.13
2018-02-13T03:04:24.590Z,10.73
2018-02-13T03:06:52.009Z,10.38
2018-02-13T03:09:19.434Z,10.25
2018-02-13T03:11:46.849Z,10.65
2018-02-13T03:14:14.285Z,10.00
2018-02-13T03:16:41.696Z,10.43
2018-02-13T03:19:09.133Z,9.38
2018-02-13T03:21:36.554Z,10.05
2018-02-13T03:24:03.969Z,10.45
2018-02-13T03:26:31.430Z,10.13
2018-02-13T03:28:58.820Z,9.65
2018-02-13T03:31:26.210Z,9.77
2018-02-13T03:33:53.681Z,8.88
2018-02-13T03:36:21.101Z,9.82
2018-02-13T03:38:48.509Z,9.13
2018-02-13T03:41:15.946Z,10.35
2018-02-13T03:43:43.361Z,10.02
2018-02-13T03:46:10.791Z,11.60
2018-02-13T03:48:38.228Z,11.32
2018-02-13T03:51:05.646Z,10.70
2018-02-13T03:53:33.066Z,9.48
2018-02-13T03:56:00.693Z,9.25
2018-02-13T03:58:28.101Z,9.98
2018-02-13T04:00:55.527Z,9.45
2018-02-13T04:03:22.945Z,9.65
2018-02-13T04:05:50.362Z,9.52
2018-02-13T04:08:17.797Z,10.05
2018-02-13T04:10:45.209Z,9.70
2018-02-13T04:13:12.638Z,10.00
2018-02-13T04:15:40.082Z,10.23
2018-02-13T04:18:07.490Z,10.35
2018-02-13T04:20:34.905Z,11.63
2018-02-13T04:23:02.325Z,10.68
2018-02-13T04:25:29.741Z,11.00
2018-02-13T04:27:57.213Z,10.43
2018-02-13T04:30:24.638Z,11.05
2018-02-13T04:32:52.062Z,10.90
2018-02-13T04:35:19.485Z,11.15
2018-02-13T04:37:46.906Z,11.25
2018-02-13T04:40:14.345Z,11.57
2018-02-13T04:42:41.757Z,11.35
2018-02-13T04:45:09.182Z,12.10
2018-02-13T04:47:36.618Z,10.65
2018-02-13T04:50:04.033Z,10.38
2018-02-13T04:52:31.458Z,10.52
2018-02-13T04:54:58.897Z,11.60
2018-02-13T04:57:26.324Z,11.60
2018-02-13T04:59:53.757Z,10.95
2018-02-13T05:02:21.177Z,12.07
2018-02-13T05:04:48.598Z,12.00
2018-02-13T05:07:16.030Z,12.18
2018-02-13T05:09:43.453Z,10.77
2018-02-13T05:12:10.885Z,10.80
2018-02-13T05:14:38.313Z,11.32
2018-02-13T05:17:05.742Z,10.88
2018-02-13T05:19:33.171Z,12.45
2018-02-13T05:22:00.585Z,11.20
2018-02-13T05:24:28.006Z,11.18
2018-02-13T05:26:55.440Z,11.88
2018-02-13T05:29:22.866Z,11.77
2018-02-13T05:31:50.281Z,11.57
2018-02-13T05:34:17.705Z,10.80
2018-02-13T05:36:45.129Z,11.43
2018-02-13T05:39:12.569Z,11.65
2018-02-13T05:41:39.986Z,10.80
2018-02-13T05:44:07.413Z,10.85
2018-02-13T05:46:34.848Z,11.38
2018-02-13T05:49:02.262Z,11.60
2018-02-13T05:51:29.694Z,10.93
2018-02-13T05:53:57.119Z,11.57
2018-02-13T05:56:24.533Z,11.00
2018-02-13T05:58:51.970Z,11.48
2018-02-13T06:01:19.381Z,11.68
2018-02-13T06:03:46.835Z,11.25
2018-02-13T06:06:14.242Z,11.52
2018-02-13T06:08:41.657Z,10.75
2018-02-13T06:11:09.097Z,11.52
2018-02-13T06:13:36.521Z,12.75
2018-02-13T06:16:03.937Z,10.98
2018-02-13T06:18:31.369Z,11.40
2018-02-13T06:20:58.786Z,12.63
2018-02-13T06:23:26.221Z,11.75
2018-02-13T06:25:53.638Z,11.75
2018-02-13T06:28:21.058Z,11.98
2018-02-13T06:30:48.487Z,11.93
2018-02-13T06:33:15.910Z,11.45
2018-02-13T06:35:43.338Z,12.77
2018-02-13T06:38:10.778Z,13.77
2018-02-13T06:40:38.235Z,14.65
2018-02-13T06:43:05.625Z,15.18
2018-02-13T06:45:33.055Z,14.48
2018-02-13T06:48:00.471Z,14.60
2018-02-13T06:50:27.924Z,13.75
2018-02-13T06:52:55.334Z,14.45
2018-02-13T06:55:22.766Z,13.48
2018-02-13T06:57:50.201Z,14.48
2018-02-13T07:00:17.620Z,15.48
2018-02-13T07:02:45.062Z,15.18
2018-02-13T07:05:12.473Z,13.62
2018-02-13T07:07:39.893Z,15.05
2018-02-13T07:10:07.324Z,13.82
2018-02-13T07:12:34.750Z,14.18
2018-02-13T07:15:02.178Z,14.95
2018-02-13T07:17:29.613Z,15.55
2018-02-13T07:19:57.044Z,16.25
2018-02-13T07:22:24.469Z,15.57
2018-02-13T07:24:51.899Z,15.50
2018-02-13T07:27:19.334Z,16.70
2018-02-13T07:29:46.769Z,15.90
2018-02-13T07:32:14.250Z,15.95
2018-02-13T07:34:41.670Z,15.90
2018-02-13T07:37:09.106Z,13.98
2018-02-13T07:39:36.509Z,15.38
2018-02-13T07:42:03.940Z,14.20
2018-02-13T07:44:31.357Z,13.30
2018-02-13T07:46:58.793Z,13.57
2018-02-13T07:49:26.245Z,14.05
2018-02-13T07:51:53.645Z,13.07
2018-02-13T07:54:21.074Z,13.68
2018-02-13T07:56:48.493Z,12.10
2018-02-13T07:59:15.914Z,13.20
2018-02-13T08:01:43.342Z,13.82
2018-02-13T08:04:10.791Z,16.08
2018-02-13T08:06:38.221Z,13.65
2018-02-13T08:09:05.648Z,14.60
2018-02-13T08:11:33.106Z,13.30
2018-02-13T08:14:00.541Z,10.88
2018-02-13T08:16:27.964Z,13.27
2018-02-13T08:18:55.369Z,12.50
2018-02-13T08:21:22.797Z,11.90
2018-02-13T08:23:50.225Z,12.52
2018-02-13T08:26:17.641Z,12.60
2018-02-13T08:28:45.069Z,15.02
2018-02-13T08:31:12.536Z,14.20
2018-02-13T08:33:39.897Z,13.38
2018-02-13T08:36:07.317Z,14.60
2018-02-13T08:38:34.743Z,14.65
2018-02-13T08:41:02.166Z,13.80
2018-02-13T08:43:29.584Z,14.23
2018-02-13T08:45:56.992Z,14.75
2018-02-13T08:48:24.420Z,13.90
2018-02-13T08:50:51.854Z,13.88
2018-02-13T08:53:19.269Z,12.48
2018-02-13T08:55:46.692Z,13.00
2018-02-13T08:58:14.117Z,13.60
2018-02-13T09:00:41.541Z,14.15
2018-02-13T09:03:08.957Z,14.85
2018-02-13T09:05:36.370Z,16.30
2018-02-13T09:08:03.797Z,15.43
2018-02-13T09:10:31.218Z,17.73
2018-02-13T09:12:58.677Z,18.17
2018-02-13T09:15:26.093Z,19.55
2018-02-13T09:17:53.510Z,20.70
2018-02-13T09:20:20.943Z,19.52
2018-02-13T09:22:48.345Z,18.05
2018-02-13T09:25:15.793Z,14.73
2018-02-13T09:27:43.205Z,13.98
2018-02-13T09:30:10.621Z,14.00
2018-02-13T09:32:38.049Z,15.82
2018-02-13T09:35:05.461Z,14.20
2018-02-13T09:37:32.874Z,15.75
2018-02-13T09:40:00.306Z,15.10
2018-02-13T09:42:27.717Z,15.80
2018-02-13T09:44:55.133Z,15.93
2018-02-13T09:47:22.566Z,17.65
2018-02-13T09:49:49.982Z,17.60
2018-02-13T09:52:17.398Z,19.05
2018-02-13T09:54:44.821Z,16.55
2018-02-13T09:57:12.234Z,18.33
2018-02-13T09:59:39.644Z,17.95
2018-02-13T10:02:07.078Z,18.83
2018-02-13T10:04:34.520Z,11.12
2018-02-13T10:07:01.922Z,8.10
2018-02-13T10:09:29.342Z,7.25
2018-02-13T10:11:56.793Z,7.20
2018-02-13T10:14:24.181Z,6.65
2018-02-13T10:16:51.608Z,7.10
2018-02-13T10:19:19.009Z,7.47
2018-02-13T10:21:46.422Z,7.20
2018-02-13T10:24:13.850Z,8.98
2018-02-13T10:26:41.253Z,9.65
2018-02-13T10:29:08.670Z,11.32
2018-02-13T10:31:36.101Z,11.27
2018-02-13T10:34:03.521Z,11.20
2018-02-13T10:36:30.979Z,9.75
2018-02-13T10:38:58.397Z,9.95
2018-02-13T10:41:25.809Z,11.30
2018-02-13T10:43:53.216Z,7.75
2018-02-13T10:46:20.649Z,7.25
2018-02-13T10:48:48.081Z,6.45
2018-02-13T10:51:15.488Z,6.72
2018-02-13T10:53:42.897Z,6.87
2018-02-13T10:56:10.317Z,7.62
2018-02-13T10:58:37.735Z,6.47
2018-02-13T11:01:10.777Z,7.20
2018-02-13T11:03:38.185Z,7.30
2018-02-13T11:06:05.592Z,7.12
2018-02-13T11:08:33.034Z,6.72
2018-02-13T11:11:00.450Z,7.30
2018-02-13T11:13:27.866Z,7.57
2018-02-13T11:15:55.297Z,8.45
2018-02-13T11:18:22.709Z,8.10
2018-02-13T11:20:50.121Z,8.48
2018-02-13T11:23:17.550Z,8.88
2018-02-13T11:25:44.964Z,8.65
2018-02-13T11:28:12.381Z,10.57
2018-02-13T11:30:39.797Z,9.45
2018-02-13T11:33:07.201Z,9.30
2018-02-13T11:35:34.613Z,9.63
2018-02-13T11:38:02.049Z,10.65
2018-02-13T11:40:29.469Z,9.10
2018-02-13T11:42:56.877Z,8.93
2018-02-13T11:45:24.301Z,8.82
2018-02-13T11:47:51.710Z,9.25
2018-02-13T11:50:19.137Z,9.23
2018-02-13T11:52:46.553Z,8.23
2018-02-13T11:55:13.973Z,8.35
2018-02-13T11:57:41.403Z,8.20
2018-02-13T12:00:08.871Z,8.50
2018-02-13T12:02:36.229Z,8.30
2018-02-13T12:05:03.657Z,7.75
2018-02-13T12:07:31.081Z,6.45
2018-02-13T12:09:58.491Z,6.93
2018-02-13T12:12:25.870Z,6.10
2018-02-13T12:14:53.317Z,6.85
2018-02-13T12:17:20.736Z,6.05
2018-02-13T12:19:48.145Z,5.72
2018-02-13T12:22:15.552Z,6.25
2018-02-13T12:24:42.961Z,6.40
2018-02-13T12:27:10.390Z,5.95
2018-02-13T12:29:37.789Z,6.50
2018-02-13T12:32:05.206Z,6.03
2018-02-13T12:34:32.621Z,6.00
2018-02-13T12:37:00.031Z,6.70
2018-02-13T12:39:27.437Z,6.35
2018-02-13T12:41:54.858Z,6.78
2018-02-13T12:44:22.265Z,7.20
2018-02-13T12:46:49.678Z,6.82
2018-02-13T12:49:17.097Z,6.85
2018-02-13T12:51:44.505Z,6.90
2018-02-13T12:54:11.920Z,6.65
2018-02-13T12:56:39.350Z,6.60
2018-02-13T12:59:06.753Z,7.30
2018-02-13T13:01:34.181Z,6.70
2018-02-13T13:04:12.240Z,7.07
2018-02-13T13:06:39.659Z,6.60
2018-02-13T13:09:07.062Z,7.10
2018-02-13T13:11:34.465Z,6.78
2018-02-13T13:14:01.893Z,7.53
2018-02-13T13:16:29.299Z,7.53
2018-02-13T13:18:56.705Z,7.18
2018-02-13T13:21:24.126Z,8.40
2018-02-13T13:23:51.531Z,6.87
2018-02-13T13:26:18.996Z,6.85
2018-02-13T13:28:46.357Z,6.30
2018-02-13T13:31:13.767Z,6.50
2018-02-13T13:33:41.190Z,7.30
2018-02-13T13:36:08.597Z,9.02
2018-02-13T13:38:36.014Z,7.55
2018-02-13T13:41:03.433Z,6.55
2018-02-13T13:43:30.846Z,6.70
2018-02-13T13:45:58.308Z,7.18
2018-02-13T13:48:25.716Z,7.03
2018-02-13T13:50:53.130Z,7.07
2018-02-13T13:53:20.548Z,6.72
2018-02-13T13:55:47.949Z,6.75
2018-02-13T13:58:15.476Z,7.40
2018-02-13T14:00:42.893Z,7.30
2018-02-13T14:03:10.301Z,7.97
2018-02-13T14:05:37.729Z,7.10
2018-02-13T14:08:05.967Z,7.60
2018-02-13T14:10:33.375Z,7.55
2018-02-13T14:13:00.798Z,6.85
2018-02-13T14:15:28.226Z,7.50
2018-02-13T14:17:55.636Z,8.13
2018-02-13T14:20:23.062Z,7.70
2018-02-13T14:22:50.473Z,7.87
2018-02-13T14:25:17.901Z,7.05
2018-02-13T14:27:45.318Z,7.95
2018-02-13T14:30:12.738Z,8.00
2018-02-13T14:32:40.157Z,8.88
2018-02-13T14:35:07.566Z,8.00
2018-02-13T14:37:34.985Z,7.87
2018-02-13T14:40:02.397Z,8.02
2018-02-13T14:42:29.815Z,7.78
2018-02-13T14:44:57.197Z,7.97
2018-02-13T14:47:24.642Z,8.60
2018-02-13T14:49:52.077Z,7.72
2018-02-13T14:52:19.485Z,7.78
2018-02-13T14:54:46.897Z,7.80
2018-02-13T14:57:14.317Z,7.80
2018-02-13T14:59:41.731Z,8.52
2018-02-13T15:02:09.149Z,8.75
2018-02-13T15:04:36.578Z,9.55
2018-02-13T15:07:03.989Z,8.38
2018-02-13T15:09:31.370Z,9.35
2018-02-13T15:11:58.837Z,9.05
2018-02-13T15:14:26.248Z,8.52
2018-02-13T15:16:55.567Z,9.25
2018-02-13T15:19:23.013Z,8.32
2018-02-13T15:21:50.417Z,9.38
2018-02-13T15:24:17.873Z,9.90
2018-02-13T15:26:45.249Z,9.75
2018-02-13T15:29:12.670Z,8.95
2018-02-13T15:31:40.441Z,9.20
2018-02-13T15:34:07.865Z,9.05
2018-02-13T15:36:35.283Z,9.15
2018-02-13T15:39:02.697Z,9.88
2018-02-13T15:41:30.127Z,9.98
2018-02-13T15:43:57.533Z,10.52
2018-02-13T15:46:24.978Z,10.40
2018-02-13T15:48:52.442Z,11.05
2018-02-13T15:51:19.850Z,10.13
2018-02-13T15:53:47.277Z,10.68
2018-02-13T15:56:14.710Z,10.57
2018-02-13T15:58:42.121Z,9.55
2018-02-13T16:01:09.545Z,11.10
2018-02-13T16:03:36.966Z,11.18
2018-02-13T16:06:04.392Z,11.10
2018-02-13T16:08:31.818Z,11.68
2018-02-13T16:10:59.233Z,10.10
2018-02-13T16:13:26.665Z,11.60
2018-02-13T16:15:54.093Z,11.50
2018-02-13T16:18:21.514Z,9.60
2018-02-13T16:20:49.180Z,11.02
2018-02-13T16:23:16.597Z,10.45
2018-02-13T16:25:44.017Z,11.48
2018-02-13T16:28:11.445Z,11.12
2018-02-13T16:30:38.866Z,12.73
2018-02-13T16:33:06.293Z,13.62
2018-02-13T16:35:33.713Z,14.32
2018-02-13T16:38:01.125Z,13.20
2018-02-13T16:40:28.562Z,12.25
2018-02-13T16:42:56.166Z,10.85
2018-02-13T16:45:23.613Z,9.55
2018-02-13T16:47:51.038Z,10.23
2018-02-13T16:50:18.458Z,11.00
2018-02-13T16:52:45.890Z,10.45
2018-02-13T16:55:13.322Z,10.35
2018-02-13T16:57:40.755Z,10.23
2018-02-13T17:00:08.174Z,10.65
2018-02-13T17:02:35.595Z,12.27
2018-02-13T17:05:03.006Z,11.10
2018-02-13T17:07:30.437Z,10.35
2018-02-13T17:09:57.854Z,10.57
2018-02-13T17:12:25.282Z,10.48
2018-02-13T17:14:52.710Z,11.35
2018-02-13T17:17:20.125Z,10.32
2018-02-13T17:19:47.537Z,10.65
2018-02-13T17:22:14.967Z,11.52
2018-02-13T17:24:42.381Z,10.55
2018-02-13T17:27:09.811Z,10.57
2018-02-13T17:29:37.233Z,11.00
2018-02-13T17:32:04.650Z,11.98
2018-02-13T17:34:32.078Z,10.95
2018-02-13T17:36:59.500Z,11.65
2018-02-13T17:39:26.930Z,11.75
2018-02-13T17:41:54.353Z,12.23
2018-02-13T17:44:21.781Z,12.60
2018-02-13T17:46:50.013Z,13.00
2018-02-13T17:49:17.442Z,13.20
2018-02-13T17:51:44.853Z,11.45
2018-02-13T17:54:12.277Z,12.63
2018-02-13T17:56:39.716Z,12.63
2018-02-13T17:59:07.144Z,13.40
2018-02-13T18:01:34.575Z,13.18
2018-02-13T18:04:02.009Z,15.02
2018-02-13T18:06:29.417Z,17.75
2018-02-13T18:08:56.851Z,14.70
2018-02-13T18:11:24.277Z,13.43
2018-02-13T18:13:51.699Z,15.38
2018-02-13T18:16:19.134Z,15.07
2018-02-13T18:18:46.553Z,14.45
2018-02-13T18:21:13.980Z,14.95
2018-02-13T18:23:41.445Z,13.80
2018-02-13T18:26:08.862Z,13.43
2018-02-13T18:28:36.298Z,14.05
2018-02-13T18:31:03.725Z,14.82
2018-02-13T18:33:31.153Z,15.20
2018-02-13T18:35:58.574Z,14.60
2018-02-13T18:38:25.994Z,13.57
2018-02-13T18:40:53.421Z,15.13
2018-02-13T18:43:20.857Z,13.80
2018-02-13T18:45:48.276Z,14.13
2018-02-13T18:48:15.701Z,15.88
2018-02-13T18:50:43.126Z,14.30
2018-02-13T18:55:37.979Z,15.40
2018-02-13T18:58:05.397Z,15.68
2018-02-13T19:00:32.821Z,14.27
2018-02-13T19:03:00.236Z,14.98
2018-02-13T19:05:27.657Z,15.50
2018-02-13T19:07:55.093Z,15.90
2018-02-13T19:10:22.510Z,15.85
2018-02-13T19:12:49.928Z,16.45
2018-02-13T19:15:17.352Z,16.17
2018-02-13T19:17:44.781Z,17.73
2018-02-13T19:20:12.202Z,16.50
2018-02-13T19:22:39.621Z,17.17
2018-02-13T19:25:07.055Z,16.62
2018-02-13T19:27:34.468Z,15.48
2018-02-13T19:30:01.910Z,16.08
2018-02-13T19:32:29.327Z,16.50
2018-02-13T19:34:56.746Z,14.80
2018-02-13T19:37:24.173Z,16.40
2018-02-13T19:39:51.596Z,17.10
2018-02-13T19:42:19.022Z,16.75
2018-02-13T19:44:46.470Z,15.65
2018-02-13T19:47:13.889Z,16.45
2018-02-13T19:49:41.321Z,17.17
2018-02-13T19:52:08.743Z,17.70
2018-02-13T19:54:36.162Z,18.58
2018-02-13T19:57:03.586Z,17.62
2018-02-13T19:59:31.010Z,18.02
2018-02-13T20:01:58.430Z,18.70
2018-02-13T20:04:25.860Z,17.75
2018-02-13T20:06:53.293Z,18.85
2018-02-13T20:09:20.714Z,18.10
2018-02-13T20:11:48.133Z,18.25
2018-02-13T20:14:15.561Z,18.00
2018-02-13T20:16:42.986Z,18.30
2018-02-13T20:19:10.410Z,18.27
2018-02-13T20:21:37.841Z,18.10
2018-02-13T20:24:05.270Z,19.25
2018-02-13T20:26:32.690Z,17.87
2018-02-13T20:29:00.114Z,20.17
2018-02-13T20:31:27.546Z,21.35
2018-02-13T20:33:54.963Z,19.23
2018-02-13T20:36:22.381Z,19.87
2018-02-13T20:38:49.814Z,19.45
2018-02-13T20:41:17.235Z,20.02
2018-02-13T20:43:44.706Z,20.80
2018-02-13T20:46:12.113Z,21.80
2018-02-13T20:48:39.541Z,20.88
2018-02-13T20:51:06.980Z,21.65
2018-02-13T20:53:34.401Z,21.87
2018-02-13T20:56:01.822Z,21.27
2018-02-13T20:58:29.257Z,20.37
2018-02-13T21:00:56.681Z,21.62
2018-02-13T21:03:24.095Z,22.02
2018-02-13T21:05:51.530Z,20.95
2018-02-13T21:08:18.957Z,20.25
2018-02-13T21:10:46.393Z,22.40
2018-02-13T21:13:13.831Z,20.20
2018-02-13T21:15:41.266Z,21.25
2018-02-13T21:18:08.704Z,20.37
2018-02-13T21:20:36.125Z,19.92
2018-02-13T21:23:03.562Z,20.50
2018-02-13T21:25:31.013Z,19.08
2018-02-13T21:27:58.455Z,20.80
2018-02-13T21:30:25.886Z,19.48
2018-02-13T21:32:53.324Z,21.30
2018-02-13T21:35:20.742Z,20.45
2018-02-13T21:37:48.179Z,20.92
2018-02-13T21:40:15.617Z,19.87
2018-02-13T21:42:43.063Z,18.67
2018-02-13T21:45:10.482Z,19.62
2018-02-13T21:47:37.926Z,19.55
2018-02-13T21:50:05.364Z,20.00
2018-02-13T21:52:32.781Z,20.80
2018-02-13T21:55:00.221Z,18.73
2018-02-13T21:57:27.670Z,21.00
2018-02-13T21:59:55.081Z,21.30
2018-02-13T22:02:22.502Z,21.33
2018-02-13T22:04:49.937Z,20.85
2018-02-13T22:07:17.418Z,20.58
2018-02-13T22:09:44.855Z,21.45
2018-02-13T22:12:12.288Z,21.30
2018-02-13T22:14:39.726Z,21.27
2018-02-13T22:17:07.157Z,21.60
2018-02-13T22:19:34.589Z,22.23
2018-02-13T22:22:02.014Z,20.27
2018-02-13T22:24:29.448Z,21.42
2018-02-13T22:26:56.878Z,20.48
2018-02-13T22:29:24.298Z,20.90
2018-02-13T22:31:51.730Z,19.25
2018-02-13T22:34:19.800Z,23.33
2018-02-13T22:36:47.230Z,21.95
2018-02-13T22:39:14.670Z,20.85
2018-02-13T22:41:42.103Z,20.23
2018-02-13T22:44:09.533Z,21.98
2018-02-13T22:46:36.973Z,21.52
2018-02-13T22:49:04.392Z,21.00
2018-02-13T22:51:31.837Z,20.50
2018-02-13T22:53:59.274Z,22.55
2018-02-13T22:56:26.714Z,21.35
2018-02-13T22:58:54.685Z,20.00
2018-02-13T23:01:22.122Z,21.95
2018-02-13T23:03:49.562Z,20.88
2018-02-13T23:06:17.240Z,21.60
2018-02-13T23:08:44.685Z,21.98
2018-02-13T23:11:12.109Z,23.75
2018-02-13T23:13:39.530Z,24.52
2018-02-13T23:16:06.969Z,26.35
2018-02-13T23:18:34.387Z,25.45
2018-02-13T23:21:01.838Z,23.75
2018-02-13T23:23:29.261Z,22.55
2018-02-13T23:25:56.715Z,22.87
2018-02-13T23:28:24.225Z,22.67
2018-02-13T23:30:51.666Z,23.65
2018-02-13T23:33:19.094Z,24.20
2018-02-13T23:35:46.517Z,22.80
2018-02-13T23:38:13.946Z,23.77
2018-02-13T23:40:41.386Z,25.02
2018-02-13T23:43:08.817Z,23.67
2018-02-13T23:45:36.247Z,24.15
2018-02-13T23:48:03.687Z,24.60
2018-02-13T23:50:31.117Z,25.48
2018-02-13T23:52:58.545Z,24.00
2018-02-13T23:55:25.950Z,23.40
2018-02-13T23:57:53.418Z,23.92
